Airfield :
LOGIN :

Register | Disclaimer

   EN    FR    IT 

 










Legend :    VFR   Marginal VFR   IFR   Intensive IFR   Very Intensive IFR
Visi :
Ceiling :
>= 8 km
>= 3000ft
5 to 8 km
1000 to 3000 ft
1500m to 5 km
500 to 1000 ft
800 to 1500m
200 to 500 ft
< 800m
< 200 ft
Symbols :   Thunderstorms  Fog  Heavy snow  Heavy precipitations  Wind > 20 kt
SIGMETs :     Misc.  Thunderstorms  Icing  Turbulence  Mountain Waves  Volcanic Ashes






- Airport Elevation : 247 ft
- IATA code : BLL


EKBI - Billund

CURRENT METAR :
  • 080720Z AUTO 17006KT 2400 BR BKN025/// 00/00 Q1038

EXPIRED METARs :
  • 080650Z AUTO 17005KT 2400 BR OVC024/// 00/00 Q1038
  • 080620Z AUTO 18005KT 150V210 2600 BR FEW005/// OVC021/// 00/00 Q1038
  • 080550Z AUTO 17005KT 2400 BR SCT004/// BKN021/// 00/00 Q1038
  • 080520Z AUTO 18004KT 2600 BR BKN020/// 00/00 Q1038
  • 080450Z AUTO 17004KT 2600 BR FEW020/// SCT210/// 00/00 Q1038
  • 080420Z AUTO 17004KT 2900 BR BKN019/// 00/00 Q1038

TAF AMD TAF EKBI
Valid from the 08 at 06:00 until the 09 at 06:00 UTC


080605Z 0806/0906 20008KT 8000 FEW025
TEMPO 0806/0808 2000 BR BKN004



MET'MAP, your aeronautical weather chart ! - Copyright ORBIFLY December 2007 - Disclaimer

ORBIFLY MET'MAP TEAM :

Programming & Development : Alexandra Zaïnal
Original concept : Baudouin d'Aumeries
Technical & hardware support : Manuel Goepfert
Assistance : Marc-Olivier Méhu




SOURCES & CREDITS :

   NOAA